sensor_id;sensor_type;location;lat;lon;timestamp;temperature;humidity
70089;HTU21D;57460;47.134;19.888;2023-04-25T00:01:31;15.02;74.09
70089;HTU21D;57460;47.134;19.888;2023-04-25T00:04:01;15.02;73.38
70089;HTU21D;57460;47.134;19.888;2023-04-25T00:06:28;15.01;73.59
70089;HTU21D;57460;47.134;19.888;2023-04-25T00:08:55;14.99;73.42
70089;HTU21D;57460;47.134;19.888;2023-04-25T00:11:22;14.91;74.67
70089;HTU21D;57460;47.134;19.888;2023-04-25T00:13:48;14.92;73.14
70089;HTU21D;57460;47.134;19.888;2023-04-25T00:16:15;14.87;73.28
70089;HTU21D;57460;47.134;19.888;2023-04-25T00:18:44;14.93;72.57
70089;HTU21D;57460;47.134;19.888;2023-04-25T00:21:12;14.84;73.45
70089;HTU21D;57460;47.134;19.888;2023-04-25T00:23:37;14.84;72.94
70089;HTU21D;57460;47.134;19.888;2023-04-25T00:26:04;14.81;73.01
70089;HTU21D;57460;47.134;19.888;2023-04-25T00:28:30;14.72;73.97
70089;HTU21D;57460;47.134;19.888;2023-04-25T00:30:55;14.72;73.80
70089;HTU21D;57460;47.134;19.888;2023-04-25T00:33:21;14.83;72.87
70089;HTU21D;57460;47.134;19.888;2023-04-25T00:35:47;14.79;72.97
70089;HTU21D;57460;47.134;19.888;2023-04-25T00:38:13;14.66;73.51
70089;HTU21D;57460;47.134;19.888;2023-04-25T00:40:39;14.62;73.51
70089;HTU21D;57460;47.134;19.888;2023-04-25T00:43:04;14.60;74.64
70089;HTU21D;57460;47.134;19.888;2023-04-25T00:45:30;14.70;73.03
70089;HTU21D;57460;47.134;19.888;2023-04-25T00:47:57;14.66;73.32
70089;HTU21D;57460;47.134;19.888;2023-04-25T00:50:23;14.60;73.41
70089;HTU21D;57460;47.134;19.888;2023-04-25T00:52:49;14.49;74.40
70089;HTU21D;57460;47.134;19.888;2023-04-25T00:55:16;14.48;73.83
70089;HTU21D;57460;47.134;19.888;2023-04-25T00:57:43;14.34;75.52
70089;HTU21D;57460;47.134;19.888;2023-04-25T01:00:09;14.37;74.18
70089;HTU21D;57460;47.134;19.888;2023-04-25T01:02:37;14.40;74.07
70089;HTU21D;57460;47.134;19.888;2023-04-25T01:05:03;14.45;73.88
70089;HTU21D;57460;47.134;19.888;2023-04-25T01:07:29;14.47;73.89
70089;HTU21D;57460;47.134;19.888;2023-04-25T01:09:56;14.52;73.30
70089;HTU21D;57460;47.134;19.888;2023-04-25T01:12:23;14.43;73.46
70089;HTU21D;57460;47.134;19.888;2023-04-25T01:14:49;14.48;73.36
70089;HTU21D;57460;47.134;19.888;2023-04-25T01:17:16;14.38;73.87
70089;HTU21D;57460;47.134;19.888;2023-04-25T01:19:43;14.48;73.36
70089;HTU21D;57460;47.134;19.888;2023-04-25T01:22:10;14.42;73.57
70089;HTU21D;57460;47.134;19.888;2023-04-25T01:24:37;14.45;72.95
70089;HTU21D;57460;47.134;19.888;2023-04-25T01:27:03;14.43;72.90
70089;HTU21D;57460;47.134;19.888;2023-04-25T01:29:31;14.52;72.51
70089;HTU21D;57460;47.134;19.888;2023-04-25T01:31:58;14.40;73.03
70089;HTU21D;57460;47.134;19.888;2023-04-25T01:34:24;14.40;72.93
70089;HTU21D;57460;47.134;19.888;2023-04-25T01:36:51;14.39;72.94
70089;HTU21D;57460;47.134;19.888;2023-04-25T01:39:18;14.35;73.34
70089;HTU21D;57460;47.134;19.888;2023-04-25T01:41:46;14.51;72.36
70089;HTU21D;57460;47.134;19.888;2023-04-25T01:44:13;14.42;72.73
70089;HTU21D;57460;47.134;19.888;2023-04-25T01:46:39;14.38;73.14
70089;HTU21D;57460;47.134;19.888;2023-04-25T01:49:05;14.40;72.78
70089;HTU21D;57460;47.134;19.888;2023-04-25T01:51:31;14.30;73.35
70089;HTU21D;57460;47.134;19.888;2023-04-25T01:53:58;14.37;72.94
70089;HTU21D;57460;47.134;19.888;2023-04-25T01:56:24;14.35;73.12
70089;HTU21D;57460;47.134;19.888;2023-04-25T01:58:51;14.25;73.45
70089;HTU21D;57460;47.134;19.888;2023-04-25T02:01:17;14.23;73.28
70089;HTU21D;57460;47.134;19.888;2023-04-25T02:03:43;14.30;72.98
70089;HTU21D;57460;47.134;19.888;2023-04-25T02:06:09;14.23;73.13
70089;HTU21D;57460;47.134;19.888;2023-04-25T02:08:40;14.28;72.88
70089;HTU21D;57460;47.134;19.888;2023-04-25T02:11:06;14.27;72.92
70089;HTU21D;57460;47.134;19.888;2023-04-25T02:13:32;14.19;73.08
70089;HTU21D;57460;47.134;19.888;2023-04-25T02:15:58;14.23;72.94
70089;HTU21D;57460;47.134;19.888;2023-04-25T02:18:24;14.22;72.81
70089;HTU21D;57460;47.134;19.888;2023-04-25T02:20:51;14.15;73.00
70089;HTU21D;57460;47.134;19.888;2023-04-25T02:23:17;14.18;72.97
70089;HTU21D;57460;47.134;19.888;2023-04-25T02:25:44;14.10;73.57
70089;HTU21D;57460;47.134;19.888;2023-04-25T02:28:11;14.12;73.15
70089;HTU21D;57460;47.134;19.888;2023-04-25T02:30:37;14.11;73.53
70089;HTU21D;57460;47.134;19.888;2023-04-25T02:33:03;14.12;73.46
70089;HTU21D;57460;47.134;19.888;2023-04-25T02:35:29;14.14;73.03
70089;HTU21D;57460;47.134;19.888;2023-04-25T02:37:54;14.06;73.64
70089;HTU21D;57460;47.134;19.888;2023-04-25T02:40:20;14.14;72.87
70089;HTU21D;57460;47.134;19.888;2023-04-25T02:42:46;14.19;72.64
70089;HTU21D;57460;47.134;19.888;2023-04-25T02:45:12;14.20;72.59
70089;HTU21D;57460;47.134;19.888;2023-04-25T02:47:38;14.25;72.44
70089;HTU21D;57460;47.134;19.888;2023-04-25T02:50:04;14.29;72.19
70089;HTU21D;57460;47.134;19.888;2023-04-25T02:52:30;14.33;71.93
70089;HTU21D;57460;47.134;19.888;2023-04-25T02:54:56;14.29;72.09
70089;HTU21D;57460;47.134;19.888;2023-04-25T02:57:22;14.22;72.16
70089;HTU21D;57460;47.134;19.888;2023-04-25T02:59:47;14.14;72.27
70089;HTU21D;57460;47.134;19.888;2023-04-25T03:02:13;14.14;72.59
70089;HTU21D;57460;47.134;19.888;2023-04-25T03:04:39;14.10;72.45
70089;HTU21D;57460;47.134;19.888;2023-04-25T03:07:08;14.08;72.61
70089;HTU21D;57460;47.134;19.888;2023-04-25T03:09:34;14.01;72.64
70089;HTU21D;57460;47.134;19.888;2023-04-25T03:12:00;14.09;72.20
70089;HTU21D;57460;47.134;19.888;2023-04-25T03:14:26;14.01;72.54
70089;HTU21D;57460;47.134;19.888;2023-04-25T03:16:52;14.06;72.12
70089;HTU21D;57460;47.134;19.888;2023-04-25T03:19:18;14.05;71.93
70089;HTU21D;57460;47.134;19.888;2023-04-25T03:21:44;14.05;71.93
70089;HTU21D;57460;47.134;19.888;2023-04-25T03:24:10;14.07;71.77
70089;HTU21D;57460;47.134;19.888;2023-04-25T03:26:39;14.05;71.69
70089;HTU21D;57460;47.134;19.888;2023-04-25T03:29:05;14.17;71.13
70089;HTU21D;57460;47.134;19.888;2023-04-25T03:31:31;14.12;70.71
70089;HTU21D;57460;47.134;19.888;2023-04-25T03:33:56;14.03;71.12
70089;HTU21D;57460;47.134;19.888;2023-04-25T03:36:22;14.17;70.38
70089;HTU21D;57460;47.134;19.888;2023-04-25T03:38:48;14.15;70.19
70089;HTU21D;57460;47.134;19.888;2023-04-25T03:41:14;14.05;70.54
70089;HTU21D;57460;47.134;19.888;2023-04-25T03:43:40;13.97;70.58
70089;HTU21D;57460;47.134;19.888;2023-04-25T03:46:05;14.00;70.16
70089;HTU21D;57460;47.134;19.888;2023-04-25T03:48:31;13.99;70.05
70089;HTU21D;57460;47.134;19.888;2023-04-25T03:50:57;13.99;70.22
70089;HTU21D;57460;47.134;19.888;2023-04-25T03:53:23;13.88;70.56
70089;HTU21D;57460;47.134;19.888;2023-04-25T03:55:49;13.74;71.10
70089;HTU21D;57460;47.134;19.888;2023-04-25T03:58:15;13.69;71.35
70089;HTU21D;57460;47.134;19.888;2023-04-25T04:00:41;13.63;71.80
70089;HTU21D;57460;47.134;19.888;2023-04-25T04:03:06;13.69;71.71
70089;HTU21D;57460;47.134;19.888;2023-04-25T04:05:32;13.73;71.62
70089;HTU21D;57460;47.134;19.888;2023-04-25T04:07:58;13.88;71.13
70089;HTU21D;57460;47.134;19.888;2023-04-25T04:10:24;13.76;71.45
70089;HTU21D;57460;47.134;19.888;2023-04-25T04:12:51;13.74;71.51
70089;HTU21D;57460;47.134;19.888;2023-04-25T04:15:17;13.71;71.45
70089;HTU21D;57460;47.134;19.888;2023-04-25T04:17:43;13.69;71.62
70089;HTU21D;57460;47.134;19.888;2023-04-25T04:20:09;13.81;70.88
70089;HTU21D;57460;47.134;19.888;2023-04-25T04:22:35;13.67;71.35
70089;HTU21D;57460;47.134;19.888;2023-04-25T04:25:01;13.66;71.39
70089;HTU21D;57460;47.134;19.888;2023-04-25T04:27:28;13.69;71.20
70089;HTU21D;57460;47.134;19.888;2023-04-25T04:29:54;13.60;71.67
70089;HTU21D;57460;47.134;19.888;2023-04-25T04:32:21;13.63;71.40
70089;HTU21D;57460;47.134;19.888;2023-04-25T04:34:49;13.62;71.39
70089;HTU21D;57460;47.134;19.888;2023-04-25T04:37:15;13.54;71.96
70089;HTU21D;57460;47.134;19.888;2023-04-25T04:39:41;13.56;70.72
70089;HTU21D;57460;47.134;19.888;2023-04-25T04:42:06;13.71;70.03
70089;HTU21D;57460;47.134;19.888;2023-04-25T04:44:33;13.54;70.55
70089;HTU21D;57460;47.134;19.888;2023-04-25T04:46:59;13.61;70.23
70089;HTU21D;57460;47.134;19.888;2023-04-25T04:49:25;13.69;68.62
70089;HTU21D;57460;47.134;19.888;2023-04-25T04:51:51;13.61;69.19
70089;HTU21D;57460;47.134;19.888;2023-04-25T04:54:17;13.54;68.68
70089;HTU21D;57460;47.134;19.888;2023-04-25T04:56:43;13.58;68.43
70089;HTU21D;57460;47.134;19.888;2023-04-25T04:59:09;13.56;68.14
70089;HTU21D;57460;47.134;19.888;2023-04-25T05:01:36;13.47;68.23
70089;HTU21D;57460;47.134;19.888;2023-04-25T05:04:02;13.55;67.71
70089;HTU21D;57460;47.134;19.888;2023-04-25T05:06:30;13.67;66.80
70089;HTU21D;57460;47.134;19.888;2023-04-25T05:08:57;13.49;67.74
70089;HTU21D;57460;47.134;19.888;2023-04-25T05:11:24;13.38;68.36
70089;HTU21D;57460;47.134;19.888;2023-04-25T05:13:53;13.35;68.61
70089;HTU21D;57460;47.134;19.888;2023-04-25T05:16:20;13.29;69.29
70089;HTU21D;57460;47.134;19.888;2023-04-25T05:18:47;13.34;68.84
70089;HTU21D;57460;47.134;19.888;2023-04-25T05:21:13;13.33;69.02
70089;HTU21D;57460;47.134;19.888;2023-04-25T05:23:39;13.25;69.75
70089;HTU21D;57460;47.134;19.888;2023-04-25T05:26:05;13.20;70.68
70089;HTU21D;57460;47.134;19.888;2023-04-25T05:28:31;13.19;70.68
70089;HTU21D;57460;47.134;19.888;2023-04-25T05:30:57;13.25;70.84
70089;HTU21D;57460;47.134;19.888;2023-04-25T05:33:23;13.34;70.77
70089;HTU21D;57460;47.134;19.888;2023-04-25T05:35:49;13.32;70.74
70089;HTU21D;57460;47.134;19.888;2023-04-25T05:38:15;13.45;70.05
70089;HTU21D;57460;47.134;19.888;2023-04-25T05:40:41;13.38;70.42
70089;HTU21D;57460;47.134;19.888;2023-04-25T05:43:07;13.26;70.82
70089;HTU21D;57460;47.134;19.888;2023-04-25T05:45:33;13.33;70.72
70089;HTU21D;57460;47.134;19.888;2023-04-25T05:47:59;13.25;71.02
70089;HTU21D;57460;47.134;19.888;2023-04-25T05:50:25;13.18;71.96
70089;HTU21D;57460;47.134;19.888;2023-04-25T05:52:51;13.12;72.16
70089;HTU21D;57460;47.134;19.888;2023-04-25T05:55:17;13.23;71.29
70089;HTU21D;57460;47.134;19.888;2023-04-25T05:57:42;13.22;71.75
70089;HTU21D;57460;47.134;19.888;2023-04-25T06:00:12;13.40;70.48
70089;HTU21D;57460;47.134;19.888;2023-04-25T06:02:38;13.17;71.84
70089;HTU21D;57460;47.134;19.888;2023-04-25T06:05:04;13.22;71.52
70089;HTU21D;57460;47.134;19.888;2023-04-25T06:07:30;13.20;71.32
70089;HTU21D;57460;47.134;19.888;2023-04-25T06:09:56;13.15;71.90
70089;HTU21D;57460;47.134;19.888;2023-04-25T06:12:22;13.25;71.11
70089;HTU21D;57460;47.134;19.888;2023-04-25T06:14:48;13.25;70.91
70089;HTU21D;57460;47.134;19.888;2023-04-25T06:17:14;13.03;71.74
70089;HTU21D;57460;47.134;19.888;2023-04-25T06:19:39;12.88;72.73
70089;HTU21D;57460;47.134;19.888;2023-04-25T06:22:09;12.88;73.33
70089;HTU21D;57460;47.134;19.888;2023-04-25T06:24:35;12.92;73.05
70089;HTU21D;57460;47.134;19.888;2023-04-25T06:27:01;12.95;72.92
70089;HTU21D;57460;47.134;19.888;2023-04-25T06:29:27;13.04;72.41
70089;HTU21D;57460;47.134;19.888;2023-04-25T06:31:52;13.06;72.35
70089;HTU21D;57460;47.134;19.888;2023-04-25T06:34:18;13.11;71.93
70089;HTU21D;57460;47.134;19.888;2023-04-25T06:36:47;13.14;72.05
70089;HTU21D;57460;47.134;19.888;2023-04-25T06:39:13;13.01;71.96
70089;HTU21D;57460;47.134;19.888;2023-04-25T06:41:39;13.02;72.35
70089;HTU21D;57460;47.134;19.888;2023-04-25T06:44:05;13.09;72.42
70089;HTU21D;57460;47.134;19.888;2023-04-25T06:46:31;13.00;72.83
70089;HTU21D;57460;47.134;19.888;2023-04-25T06:48:57;13.15;72.35
70089;HTU21D;57460;47.134;19.888;2023-04-25T06:51:23;13.08;72.71
70089;HTU21D;57460;47.134;19.888;2023-04-25T06:53:50;13.01;72.87
70089;HTU21D;57460;47.134;19.888;2023-04-25T06:56:16;13.00;72.61
70089;HTU21D;57460;47.134;19.888;2023-04-25T06:58:42;12.91;73.18
70089;HTU21D;57460;47.134;19.888;2023-04-25T07:01:08;12.73;73.83
70089;HTU21D;57460;47.134;19.888;2023-04-25T07:03:34;12.70;74.06
70089;HTU21D;57460;47.134;19.888;2023-04-25T07:06:00;12.50;76.10
70089;HTU21D;57460;47.134;19.888;2023-04-25T07:08:26;12.67;74.50
70089;HTU21D;57460;47.134;19.888;2023-04-25T07:10:52;12.55;75.12
70089;HTU21D;57460;47.134;19.888;2023-04-25T07:13:18;12.52;75.42
70089;HTU21D;57460;47.134;19.888;2023-04-25T07:15:44;12.59;75.51
70089;HTU21D;57460;47.134;19.888;2023-04-25T07:18:10;12.63;74.99
70089;HTU21D;57460;47.134;19.888;2023-04-25T07:20:36;12.73;74.86
70089;HTU21D;57460;47.134;19.888;2023-04-25T07:23:01;12.61;75.25
70089;HTU21D;57460;47.134;19.888;2023-04-25T07:25:27;12.60;75.59
70089;HTU21D;57460;47.134;19.888;2023-04-25T07:27:53;12.57;75.73
70089;HTU21D;57460;47.134;19.888;2023-04-25T07:30:19;12.50;76.31
70089;HTU21D;57460;47.134;19.888;2023-04-25T07:32:45;12.62;75.83
70089;HTU21D;57460;47.134;19.888;2023-04-25T07:35:11;12.59;76.27
70089;HTU21D;57460;47.134;19.888;2023-04-25T07:37:36;12.65;76.34
70089;HTU21D;57460;47.134;19.888;2023-04-25T07:40:03;12.90;74.92
70089;HTU21D;57460;47.134;19.888;2023-04-25T07:42:30;12.77;75.48
70089;HTU21D;57460;47.134;19.888;2023-04-25T07:44:56;12.60;76.34
70089;HTU21D;57460;47.134;19.888;2023-04-25T07:47:22;12.65;76.79
70089;HTU21D;57460;47.134;19.888;2023-04-25T07:49:47;12.62;76.86
70089;HTU21D;57460;47.134;19.888;2023-04-25T07:52:13;12.81;76.29
70089;HTU21D;57460;47.134;19.888;2023-04-25T07:54:40;12.95;76.07
70089;HTU21D;57460;47.134;19.888;2023-04-25T07:57:05;13.06;75.91
70089;HTU21D;57460;47.134;19.888;2023-04-25T07:59:34;13.11;75.58
70089;HTU21D;57460;47.134;19.888;2023-04-25T08:02:01;13.09;76.12
70089;HTU21D;57460;47.134;19.888;2023-04-25T08:04:27;13.10;76.23
70089;HTU21D;57460;47.134;19.888;2023-04-25T08:06:53;13.38;75.03
70089;HTU21D;57460;47.134;19.888;2023-04-25T08:09:20;13.35;74.73
70089;HTU21D;57460;47.134;19.888;2023-04-25T08:11:46;13.23;76.76
70089;HTU21D;57460;47.134;19.888;2023-04-25T08:14:13;13.40;75.60
70089;HTU21D;57460;47.134;19.888;2023-04-25T08:16:39;13.51;75.29
70089;HTU21D;57460;47.134;19.888;2023-04-25T08:19:06;13.53;75.65
70089;HTU21D;57460;47.134;19.888;2023-04-25T08:21:31;13.80;75.03
70089;HTU21D;57460;47.134;19.888;2023-04-25T08:23:58;13.99;75.09
70089;HTU21D;57460;47.134;19.888;2023-04-25T08:26:28;14.22;74.18
70089;HTU21D;57460;47.134;19.888;2023-04-25T08:28:54;14.32;74.28
70089;HTU21D;57460;47.134;19.888;2023-04-25T08:31:20;14.72;71.03
70089;HTU21D;57460;47.134;19.888;2023-04-25T08:33:46;14.66;70.96
70089;HTU21D;57460;47.134;19.888;2023-04-25T08:36:12;14.83;69.81
70089;HTU21D;57460;47.134;19.888;2023-04-25T08:38:37;14.95;69.73
70089;HTU21D;57460;47.134;19.888;2023-04-25T08:41:05;15.09;69.60
70089;HTU21D;57460;47.134;19.888;2023-04-25T08:43:31;15.19;68.97
70089;HTU21D;57460;47.134;19.888;2023-04-25T08:46:01;15.31;66.86
70089;HTU21D;57460;47.134;19.888;2023-04-25T08:48:28;15.25;69.31
70089;HTU21D;57460;47.134;19.888;2023-04-25T08:50:57;15.46;68.81
70089;HTU21D;57460;47.134;19.888;2023-04-25T08:53:29;15.67;66.13
70089;HTU21D;57460;47.134;19.888;2023-04-25T08:55:57;15.52;65.84
70089;HTU21D;57460;47.134;19.888;2023-04-25T08:58:23;15.62;66.10
70089;HTU21D;57460;47.134;19.888;2023-04-25T09:00:51;15.84;63.85
70089;HTU21D;57460;47.134;19.888;2023-04-25T09:03:18;15.70;66.42
70089;HTU21D;57460;47.134;19.888;2023-04-25T09:05:44;15.87;66.23
70089;HTU21D;57460;47.134;19.888;2023-04-25T09:08:10;15.82;64.79
70089;HTU21D;57460;47.134;19.888;2023-04-25T09:10:37;15.82;63.64
70089;HTU21D;57460;47.134;19.888;2023-04-25T09:13:11;15.90;62.10
70089;HTU21D;57460;47.134;19.888;2023-04-25T09:15:56;16.06;59.96
70089;HTU21D;57460;47.134;19.888;2023-04-25T09:20:49;16.07;59.49
70089;HTU21D;57460;47.134;19.888;2023-04-25T09:23:15;16.03;60.25
70089;HTU21D;57460;47.134;19.888;2023-04-25T09:25:41;16.36;60.48
70089;HTU21D;57460;47.134;19.888;2023-04-25T09:28:08;16.40;60.64
70089;HTU21D;57460;47.134;19.888;2023-04-25T09:30:36;16.64;58.68
70089;HTU21D;57460;47.134;19.888;2023-04-25T09:33:10;16.59;59.74
70089;HTU21D;57460;47.134;19.888;2023-04-25T09:35:44;16.80;55.68
70089;HTU21D;57460;47.134;19.888;2023-04-25T09:38:15;16.79;55.13
70089;HTU21D;57460;47.134;19.888;2023-04-25T09:40:45;16.70;56.29
70089;HTU21D;57460;47.134;19.888;2023-04-25T09:43:22;16.46;57.10
70089;HTU21D;57460;47.134;19.888;2023-04-25T09:45:48;16.30;59.28
70089;HTU21D;57460;47.134;19.888;2023-04-25T09:48:18;16.47;59.64
70089;HTU21D;57460;47.134;19.888;2023-04-25T09:50:51;16.71;56.78
70089;HTU21D;57460;47.134;19.888;2023-04-25T09:53:29;16.79;57.85
70089;HTU21D;57460;47.134;19.888;2023-04-25T09:55:55;16.95;56.21
70089;HTU21D;57460;47.134;19.888;2023-04-25T09:58:24;16.87;57.13
70089;HTU21D;57460;47.134;19.888;2023-04-25T10:00:55;17.31;53.84
70089;HTU21D;57460;47.134;19.888;2023-04-25T10:03:25;17.49;53.72
70089;HTU21D;57460;47.134;19.888;2023-04-25T10:05:53;17.54;53.13
70089;HTU21D;57460;47.134;19.888;2023-04-25T10:08:20;17.40;50.92
70089;HTU21D;57460;47.134;19.888;2023-04-25T10:10:48;17.09;53.05
70089;HTU21D;57460;47.134;19.888;2023-04-25T10:13:16;16.87;53.97
70089;HTU21D;57460;47.134;19.888;2023-04-25T10:15:42;16.49;56.43
70089;HTU21D;57460;47.134;19.888;2023-04-25T10:18:09;16.58;56.35
70089;HTU21D;57460;47.134;19.888;2023-04-25T10:20:35;16.65;57.74
70089;HTU21D;57460;47.134;19.888;2023-04-25T10:23:13;17.05;56.37
70089;HTU21D;57460;47.134;19.888;2023-04-25T10:25:40;17.06;55.93
70089;HTU21D;57460;47.134;19.888;2023-04-25T10:28:07;17.01;54.91
70089;HTU21D;57460;47.134;19.888;2023-04-25T10:30:32;17.00;53.56
70089;HTU21D;57460;47.134;19.888;2023-04-25T10:32:59;16.75;54.44
70089;HTU21D;57460;47.134;19.888;2023-04-25T10:35:32;16.54;55.62
70089;HTU21D;57460;47.134;19.888;2023-04-25T10:38:05;16.57;56.90
70089;HTU21D;57460;47.134;19.888;2023-04-25T10:40:34;16.67;56.31
70089;HTU21D;57460;47.134;19.888;2023-04-25T10:43:34;16.76;54.11
70089;HTU21D;57460;47.134;19.888;2023-04-25T10:46:01;16.58;55.11
70089;HTU21D;57460;47.134;19.888;2023-04-25T10:48:31;16.46;55.14
70089;HTU21D;57460;47.134;19.888;2023-04-25T10:51:10;16.48;56.70
70089;HTU21D;57460;47.134;19.888;2023-04-25T10:53:38;16.84;56.11
70089;HTU21D;57460;47.134;19.888;2023-04-25T10:59:15;17.11;55.29
70089;HTU21D;57460;47.134;19.888;2023-04-25T11:01:45;17.24;54.84
70089;HTU21D;57460;47.134;19.888;2023-04-25T11:07:13;17.60;53.52
70089;HTU21D;57460;47.134;19.888;2023-04-25T11:09:44;17.60;52.61
70089;HTU21D;57460;47.134;19.888;2023-04-25T11:12:11;17.54;53.22
70089;HTU21D;57460;47.134;19.888;2023-04-25T11:14:38;17.46;53.71
70089;HTU21D;57460;47.134;19.888;2023-04-25T11:17:04;17.48;53.65
70089;HTU21D;57460;47.134;19.888;2023-04-25T11:19:31;17.65;52.70
70089;HTU21D;57460;47.134;19.888;2023-04-25T11:21:59;17.77;52.05
70089;HTU21D;57460;47.134;19.888;2023-04-25T11:24:27;17.58;53.91
70089;HTU21D;57460;47.134;19.888;2023-04-25T11:26:53;17.67;52.50
70089;HTU21D;57460;47.134;19.888;2023-04-25T11:29:22;17.70;52.91
70089;HTU21D;57460;47.134;19.888;2023-04-25T11:31:48;17.39;54.26
70089;HTU21D;57460;47.134;19.888;2023-04-25T11:34:21;17.50;54.34
70089;HTU21D;57460;47.134;19.888;2023-04-25T11:36:47;17.49;53.51
70089;HTU21D;57460;47.134;19.888;2023-04-25T11:39:14;17.40;54.71
70089;HTU21D;57460;47.134;19.888;2023-04-25T11:41:41;17.52;52.72
70089;HTU21D;57460;47.134;19.888;2023-04-25T11:44:07;17.30;55.16
70089;HTU21D;57460;47.134;19.888;2023-04-25T11:46:36;17.68;52.79
70089;HTU21D;57460;47.134;19.888;2023-04-25T11:49:03;17.37;53.93
70089;HTU21D;57460;47.134;19.888;2023-04-25T11:51:34;17.35;54.56
70089;HTU21D;57460;47.134;19.888;2023-04-25T11:54:03;17.28;55.79
70089;HTU21D;57460;47.134;19.888;2023-04-25T11:56:28;17.44;54.75
70089;HTU21D;57460;47.134;19.888;2023-04-25T11:58:59;17.29;54.46
70089;HTU21D;57460;47.134;19.888;2023-04-25T12:03:52;17.09;55.79
70089;HTU21D;57460;47.134;19.888;2023-04-25T12:06:18;17.11;56.63
70089;HTU21D;57460;47.134;19.888;2023-04-25T12:09:03;17.53;54.00
70089;HTU21D;57460;47.134;19.888;2023-04-25T12:11:40;17.46;54.47
70089;HTU21D;57460;47.134;19.888;2023-04-25T12:14:05;17.33;55.04
70089;HTU21D;57460;47.134;19.888;2023-04-25T12:16:46;17.62;53.75
70089;HTU21D;57460;47.134;19.888;2023-04-25T12:19:16;17.49;53.19
70089;HTU21D;57460;47.134;19.888;2023-04-25T12:21:43;17.31;54.86
70089;HTU21D;57460;47.134;19.888;2023-04-25T12:24:14;17.72;52.59
70089;HTU21D;57460;47.134;19.888;2023-04-25T12:26:48;17.60;52.20
70089;HTU21D;57460;47.134;19.888;2023-04-25T12:29:22;17.44;54.78
70089;HTU21D;57460;47.134;19.888;2023-04-25T12:31:49;17.67;52.53
70089;HTU21D;57460;47.134;19.888;2023-04-25T12:34:15;17.58;53.04
70089;HTU21D;57460;47.134;19.888;2023-04-25T12:36:41;17.49;52.11
70089;HTU21D;57460;47.134;19.888;2023-04-25T12:39:07;17.59;52.45
70089;HTU21D;57460;47.134;19.888;2023-04-25T12:41:33;17.38;53.50
70089;HTU21D;57460;47.134;19.888;2023-04-25T12:43:59;17.25;53.98
70089;HTU21D;57460;47.134;19.888;2023-04-25T12:46:25;17.43;53.11
70089;HTU21D;57460;47.134;19.888;2023-04-25T12:48:51;17.22;53.56
70089;HTU21D;57460;47.134;19.888;2023-04-25T12:51:17;17.30;52.69
70089;HTU21D;57460;47.134;19.888;2023-04-25T12:53:43;17.34;52.53
70089;HTU21D;57460;47.134;19.888;2023-04-25T12:56:09;17.23;53.39
70089;HTU21D;57460;47.134;19.888;2023-04-25T12:58:35;17.23;53.24
70089;HTU21D;57460;47.134;19.888;2023-04-25T13:01:01;17.39;50.41
70089;HTU21D;57460;47.134;19.888;2023-04-25T13:03:27;17.50;48.55
70089;HTU21D;57460;47.134;19.888;2023-04-25T13:05:52;17.25;51.16
70089;HTU21D;57460;47.134;19.888;2023-04-25T13:08:19;17.58;51.62
70089;HTU21D;57460;47.134;19.888;2023-04-25T13:10:44;17.75;49.51
70089;HTU21D;57460;47.134;19.888;2023-04-25T13:13:10;17.61;49.37
70089;HTU21D;57460;47.134;19.888;2023-04-25T13:15:36;17.50;49.40
70089;HTU21D;57460;47.134;19.888;2023-04-25T13:18:08;17.30;50.03
70089;HTU21D;57460;47.134;19.888;2023-04-25T13:20:34;17.16;51.04
70089;HTU21D;57460;47.134;19.888;2023-04-25T13:23:00;17.06;51.27
70089;HTU21D;57460;47.134;19.888;2023-04-25T13:25:26;17.07;51.41
70089;HTU21D;57460;47.134;19.888;2023-04-25T13:27:52;17.23;50.30
70089;HTU21D;57460;47.134;19.888;2023-04-25T13:30:18;17.34;49.44
70089;HTU21D;57460;47.134;19.888;2023-04-25T13:32:43;17.18;49.74
70089;HTU21D;57460;47.134;19.888;2023-04-25T13:35:12;17.26;49.18
70089;HTU21D;57460;47.134;19.888;2023-04-25T13:37:39;17.39;47.51
70089;HTU21D;57460;47.134;19.888;2023-04-25T13:40:08;17.45;46.90
70089;HTU21D;57460;47.134;19.888;2023-04-25T13:42:36;17.36;47.05
70089;HTU21D;57460;47.134;19.888;2023-04-25T13:45:02;17.34;48.53
70089;HTU21D;57460;47.134;19.888;2023-04-25T13:47:29;17.52;48.40
70089;HTU21D;57460;47.134;19.888;2023-04-25T13:49:56;17.66;48.27
70089;HTU21D;57460;47.134;19.888;2023-04-25T13:52:22;17.80;47.70
70089;HTU21D;57460;47.134;19.888;2023-04-25T13:54:50;18.03;47.85
70089;HTU21D;57460;47.134;19.888;2023-04-25T13:57:16;18.06;46.99
70089;HTU21D;57460;47.134;19.888;2023-04-25T13:59:42;18.21;46.09
70089;HTU21D;57460;47.134;19.888;2023-04-25T14:02:08;18.03;45.95
70089;HTU21D;57460;47.134;19.888;2023-04-25T14:04:34;17.87;46.81
70089;HTU21D;57460;47.134;19.888;2023-04-25T14:07:01;17.95;47.89
70089;HTU21D;57460;47.134;19.888;2023-04-25T14:09:28;18.42;46.85
70089;HTU21D;57460;47.134;19.888;2023-04-25T14:11:55;18.43;45.99
70089;HTU21D;57460;47.134;19.888;2023-04-25T14:14:22;18.47;45.70
70089;HTU21D;57460;47.134;19.888;2023-04-25T14:16:49;18.24;45.55
70089;HTU21D;57460;47.134;19.888;2023-04-25T14:19:17;18.26;45.81
70089;HTU21D;57460;47.134;19.888;2023-04-25T14:21:43;18.15;47.33
70089;HTU21D;57460;47.134;19.888;2023-04-25T14:24:09;18.25;46.57
70089;HTU21D;57460;47.134;19.888;2023-04-25T14:26:36;18.44;46.59
70089;HTU21D;57460;47.134;19.888;2023-04-25T14:29:05;18.14;46.09
70089;HTU21D;57460;47.134;19.888;2023-04-25T14:31:34;18.47;46.61
70089;HTU21D;57460;47.134;19.888;2023-04-25T14:34:01;18.40;47.73
70089;HTU21D;57460;47.134;19.888;2023-04-25T14:36:31;18.59;46.25
70089;HTU21D;57460;47.134;19.888;2023-04-25T14:38:58;18.64;46.05
70089;HTU21D;57460;47.134;19.888;2023-04-25T14:41:25;18.42;45.75
70089;HTU21D;57460;47.134;19.888;2023-04-25T14:43:52;18.87;45.45
70089;HTU21D;57460;47.134;19.888;2023-04-25T14:46:22;18.66;45.49
70089;HTU21D;57460;47.134;19.888;2023-04-25T14:48:49;18.71;44.65
70089;HTU21D;57460;47.134;19.888;2023-04-25T14:51:15;18.69;45.91
70089;HTU21D;57460;47.134;19.888;2023-04-25T14:53:41;18.53;46.84
70089;HTU21D;57460;47.134;19.888;2023-04-25T14:56:07;18.83;45.35
70089;HTU21D;57460;47.134;19.888;2023-04-25T14:58:34;18.87;45.77
70089;HTU21D;57460;47.134;19.888;2023-04-25T15:01:00;18.85;45.92
70089;HTU21D;57460;47.134;19.888;2023-04-25T15:03:26;18.83;46.62
70089;HTU21D;57460;47.134;19.888;2023-04-25T15:05:55;19.05;45.93
70089;HTU21D;57460;47.134;19.888;2023-04-25T15:08:21;19.03;45.53
70089;HTU21D;57460;47.134;19.888;2023-04-25T15:10:47;18.79;45.21
70089;HTU21D;57460;47.134;19.888;2023-04-25T15:13:13;19.11;45.19